createdAt,value
2018-05-15T00:01:19.143Z,15.50
2018-05-15T00:03:47.643Z,15.50
2018-05-15T00:06:15.918Z,15.50
2018-05-15T00:08:44.311Z,15.50
2018-05-15T00:11:12.614Z,15.50
2018-05-15T00:13:41.027Z,15.50
2018-05-15T00:16:10.099Z,15.40
2018-05-15T00:18:39.219Z,15.40
2018-05-15T00:21:08.411Z,15.40
2018-05-15T00:23:37.548Z,15.30
2018-05-15T00:26:05.852Z,15.30
2018-05-15T00:28:34.244Z,15.30
2018-05-15T00:31:02.640Z,15.30
2018-05-15T00:33:31.720Z,15.20
2018-05-15T00:36:00.801Z,15.20
2018-05-15T00:38:29.482Z,15.20
2018-05-15T00:40:57.837Z,15.20
2018-05-15T00:43:26.125Z,15.20
2018-05-15T00:45:54.577Z,15.10
2018-05-15T00:48:22.870Z,15.10
2018-05-15T00:50:51.546Z,15.10
2018-05-15T00:53:19.879Z,15.10
2018-05-15T00:55:48.971Z,15.10
2018-05-15T00:58:18.055Z,15.00
2018-05-15T01:00:47.348Z,15.00
2018-05-15T01:03:15.640Z,15.00
2018-05-15T01:05:44.765Z,15.00
2018-05-15T01:08:13.111Z,15.00
2018-05-15T01:10:41.524Z,14.90
2018-05-15T01:13:10.269Z,15.00
2018-05-15T01:15:38.558Z,14.90
2018-05-15T01:18:08.898Z,14.80
2018-05-15T01:20:37.925Z,14.80
2018-05-15T01:23:06.362Z,14.80
2018-05-15T01:25:37.446Z,14.80
2018-05-15T01:28:06.692Z,14.80
2018-05-15T01:30:35.296Z,14.70
2018-05-15T01:33:04.363Z,14.70
2018-05-15T01:35:33.465Z,14.60
2018-05-15T01:38:03.496Z,14.50
2018-05-15T01:40:32.545Z,14.50
2018-05-15T01:43:01.192Z,14.50
2018-05-15T01:45:29.551Z,14.60
2018-05-15T01:47:58.634Z,14.50
2018-05-15T01:50:27.859Z,14.50
2018-05-15T01:52:56.921Z,14.50
2018-05-15T01:55:26.746Z,14.50
2018-05-15T01:57:55.774Z,14.40
2018-05-15T02:00:24.118Z,14.40
2018-05-15T02:02:53.217Z,14.30
2018-05-15T02:05:22.276Z,14.30
2018-05-15T02:07:50.902Z,14.30
2018-05-15T02:10:19.942Z,14.30
2018-05-15T02:12:48.308Z,14.20
2018-05-15T02:15:16.625Z,14.20
2018-05-15T02:17:46.190Z,14.20
2018-05-15T02:20:14.526Z,14.20
2018-05-15T02:22:43.610Z,14.10
2018-05-15T02:25:11.982Z,14.10
2018-05-15T02:27:40.345Z,14.10
2018-05-15T02:30:08.661Z,14.10
2018-05-15T02:32:37.725Z,14.00
2018-05-15T02:35:06.079Z,13.90
2018-05-15T02:37:34.727Z,13.90
2018-05-15T02:40:03.104Z,13.90
2018-05-15T02:42:32.534Z,13.80
2018-05-15T02:45:00.888Z,13.90
2018-05-15T02:47:29.244Z,13.90
2018-05-15T02:49:58.769Z,13.80
2018-05-15T02:52:27.841Z,13.80
2018-05-15T02:54:57.320Z,13.70
2018-05-15T02:57:25.602Z,13.70
2018-05-15T02:59:53.941Z,13.70
2018-05-15T03:02:22.217Z,13.70
2018-05-15T03:04:50.536Z,13.60
2018-05-15T03:07:19.644Z,13.50
2018-05-15T03:09:48.254Z,13.50
2018-05-15T03:12:16.562Z,13.50
2018-05-15T03:14:44.930Z,13.50
2018-05-15T03:17:14.067Z,13.40
2018-05-15T03:19:42.356Z,13.40
2018-05-15T03:22:10.690Z,13.40
2018-05-15T03:24:38.976Z,13.40
2018-05-15T03:27:08.230Z,13.30
2018-05-15T03:29:37.276Z,13.30
2018-05-15T03:32:05.595Z,13.30
2018-05-15T03:34:35.129Z,13.30
2018-05-15T03:37:03.455Z,13.30
2018-05-15T03:39:31.785Z,13.30
2018-05-15T03:42:00.150Z,13.30
2018-05-15T03:44:28.433Z,13.30
2018-05-15T03:46:57.606Z,13.30
2018-05-15T03:49:26.688Z,13.30
2018-05-15T03:51:55.787Z,13.30
2018-05-15T03:54:24.910Z,13.30
2018-05-15T03:56:53.500Z,13.20
2018-05-15T03:59:21.864Z,13.30
2018-05-15T04:02:02.007Z,13.20
2018-05-15T04:04:42.860Z,13.20
2018-05-15T04:07:23.087Z,13.20
2018-05-15T04:09:51.400Z,13.10
2018-05-15T04:12:20.521Z,13.20
2018-05-15T04:14:48.865Z,13.10
2018-05-15T04:17:17.506Z,13.20
2018-05-15T04:19:46.751Z,13.20
2018-05-15T04:22:15.130Z,13.30
2018-05-15T04:24:43.440Z,13.30
2018-05-15T04:27:11.790Z,13.40
2018-05-15T04:29:40.861Z,13.50
2018-05-15T04:32:09.162Z,13.50
2018-05-15T04:34:38.252Z,13.70
2018-05-15T04:37:06.868Z,13.70
2018-05-15T04:39:35.252Z,13.70
2018-05-15T04:42:03.553Z,13.70
2018-05-15T04:44:31.894Z,13.70
2018-05-15T04:47:00.194Z,13.60
2018-05-15T04:49:28.575Z,13.70
2018-05-15T04:51:56.904Z,13.80
2018-05-15T04:54:26.379Z,14.30
2018-05-15T04:56:55.042Z,15.70
2018-05-15T04:59:23.379Z,17.10
2018-05-15T05:01:52.588Z,18.70
2018-05-15T05:04:20.846Z,18.70
2018-05-15T05:06:49.914Z,20.30
2018-05-15T05:09:18.301Z,20.30
2018-05-15T05:11:49.154Z,21.80
2018-05-15T05:14:18.149Z,22.30
2018-05-15T05:16:48.531Z,22.80
2018-05-15T05:19:16.829Z,22.70
2018-05-15T05:21:45.195Z,23.10
2018-05-15T05:24:13.520Z,23.40
2018-05-15T05:26:42.700Z,23.30
2018-05-15T05:29:11.793Z,24.00
2018-05-15T05:31:40.963Z,24.20
2018-05-15T05:34:10.868Z,24.80
2018-05-15T05:36:39.149Z,24.80
2018-05-15T05:39:07.581Z,25.10
2018-05-15T05:41:35.870Z,25.30
2018-05-15T05:44:04.201Z,25.60
2018-05-15T05:46:32.596Z,25.70
2018-05-15T05:49:01.710Z,27.00
2018-05-15T05:51:30.798Z,26.40
2018-05-15T05:53:59.868Z,26.80
2018-05-15T05:56:28.954Z,27.10
2018-05-15T05:58:57.591Z,27.10
2018-05-15T06:01:27.119Z,27.60
2018-05-15T06:03:55.942Z,28.10
2018-05-15T06:06:24.401Z,28.80
2018-05-15T06:08:52.700Z,28.80
2018-05-15T06:11:21.895Z,28.80
2018-05-15T06:13:50.309Z,28.30
2018-05-15T06:16:18.648Z,28.70
2018-05-15T06:18:47.744Z,28.30
2018-05-15T06:21:16.034Z,28.30
2018-05-15T06:23:45.147Z,27.80
2018-05-15T06:26:13.488Z,27.70
2018-05-15T06:28:41.822Z,28.00
2018-05-15T06:31:10.177Z,28.40
2018-05-15T06:33:39.333Z,29.10
2018-05-15T06:36:07.601Z,29.10
2018-05-15T06:38:36.032Z,29.00
2018-05-15T06:41:04.465Z,28.80
2018-05-15T06:43:32.885Z,29.00
2018-05-15T06:46:01.955Z,29.70
2018-05-15T06:48:30.487Z,29.70
2018-05-15T06:50:58.841Z,29.10
2018-05-15T06:53:28.102Z,29.70
2018-05-15T06:55:56.401Z,29.60
2018-05-15T06:58:24.734Z,30.30
2018-05-15T07:00:53.034Z,30.60
2018-05-15T07:03:21.745Z,30.70
2018-05-15T07:05:50.418Z,30.80
2018-05-15T07:08:18.838Z,31.10
2018-05-15T07:10:47.182Z,30.80
2018-05-15T07:13:15.582Z,30.30
2018-05-15T07:15:44.721Z,30.50
2018-05-15T07:18:13.389Z,30.50
2018-05-15T07:20:41.685Z,31.00
2018-05-15T07:23:09.987Z,31.40
2018-05-15T07:25:38.287Z,32.20
2018-05-15T07:28:06.678Z,31.80
2018-05-15T07:30:35.911Z,32.40
2018-05-15T07:33:04.246Z,33.10
2018-05-15T07:35:32.525Z,32.00
2018-05-15T07:38:11.101Z,31.40
2018-05-15T07:40:39.457Z,31.40
2018-05-15T07:43:07.776Z,31.00
2018-05-15T07:45:37.742Z,30.50
2018-05-15T07:48:06.411Z,30.50
2018-05-15T07:50:35.012Z,30.40
2018-05-15T07:53:03.321Z,29.90
2018-05-15T07:55:31.645Z,28.40
2018-05-15T07:58:00.128Z,27.30
2018-05-15T08:00:28.429Z,26.50
2018-05-15T08:02:56.808Z,25.70
2018-05-15T08:05:25.126Z,24.90
2018-05-15T08:07:54.313Z,24.00
2018-05-15T08:10:22.632Z,24.00
2018-05-15T08:12:50.921Z,23.70
2018-05-15T08:15:19.266Z,23.70
2018-05-15T08:17:48.362Z,23.70
2018-05-15T08:20:17.343Z,23.30
2018-05-15T08:22:45.667Z,23.20
2018-05-15T08:25:14.056Z,23.00
2018-05-15T08:27:42.395Z,22.70
2018-05-15T08:30:11.516Z,22.80
2018-05-15T08:32:39.859Z,22.80
2018-05-15T08:35:08.485Z,22.80
2018-05-15T08:37:36.944Z,23.00
2018-05-15T08:40:05.201Z,23.00
2018-05-15T08:42:34.293Z,22.70
2018-05-15T08:45:03.390Z,22.60
2018-05-15T08:47:32.473Z,22.80
2018-05-15T08:50:00.760Z,22.70
2018-05-15T08:52:31.086Z,22.80
2018-05-15T08:55:00.859Z,22.70
2018-05-15T08:57:30.388Z,22.70
2018-05-15T08:59:58.676Z,23.00
2018-05-15T09:02:27.028Z,23.10
2018-05-15T09:04:55.305Z,23.30
2018-05-15T09:07:24.018Z,23.30
2018-05-15T09:09:52.271Z,23.40
2018-05-15T09:12:20.587Z,23.40
2018-05-15T09:14:48.889Z,23.20
2018-05-15T09:17:17.204Z,23.30
2018-05-15T09:19:45.500Z,23.20
2018-05-15T09:22:15.564Z,23.60
2018-05-15T09:24:47.556Z,23.60
2018-05-15T09:27:16.675Z,23.80
2018-05-15T09:29:45.790Z,24.10
2018-05-15T09:32:15.898Z,24.40
2018-05-15T09:34:45.151Z,24.50
2018-05-15T09:37:13.435Z,24.50
2018-05-15T09:39:41.796Z,24.40
2018-05-15T09:42:10.104Z,24.40
2018-05-15T09:44:38.426Z,24.50
2018-05-15T09:47:06.806Z,24.60
2018-05-15T09:49:35.166Z,24.70
2018-05-15T09:52:04.288Z,24.60
2018-05-15T09:54:32.604Z,24.60
2018-05-15T09:57:01.263Z,25.00
2018-05-15T09:59:29.564Z,25.20
2018-05-15T10:01:59.132Z,25.20
2018-05-15T10:04:27.790Z,25.40
2018-05-15T10:06:56.872Z,25.20
2018-05-15T10:09:26.833Z,25.30
2018-05-15T10:11:55.153Z,25.30
2018-05-15T10:14:23.455Z,25.30
2018-05-15T10:16:52.828Z,25.20
2018-05-15T10:19:21.983Z,25.30
2018-05-15T10:21:50.418Z,25.30
2018-05-15T10:24:18.767Z,25.20
2018-05-15T10:26:47.071Z,25.30
2018-05-15T10:29:16.545Z,25.10
2018-05-15T10:31:44.851Z,25.10
2018-05-15T10:34:13.262Z,25.30
2018-05-15T10:36:41.573Z,25.40
2018-05-15T10:39:09.908Z,25.60
2018-05-15T10:41:38.228Z,25.60
2018-05-15T10:44:06.682Z,25.60
2018-05-15T10:46:35.019Z,25.80
2018-05-15T10:49:03.350Z,25.90
2018-05-15T10:51:31.678Z,25.80
2018-05-15T10:54:00.006Z,25.80
2018-05-15T10:56:28.410Z,25.80
2018-05-15T10:58:56.723Z,25.90
2018-05-15T11:01:25.882Z,26.10
2018-05-15T11:03:54.250Z,26.00
2018-05-15T11:06:22.887Z,26.20
2018-05-15T11:08:51.504Z,26.30
2018-05-15T11:11:19.865Z,26.40
2018-05-15T11:13:48.150Z,26.00
2018-05-15T11:16:16.463Z,25.90
2018-05-15T11:18:44.866Z,25.90
2018-05-15T11:21:24.994Z,25.90
2018-05-15T11:37:44.878Z,26.00
2018-05-15T11:40:13.127Z,26.00
2018-05-15T11:42:41.416Z,26.20
2018-05-15T11:45:09.642Z,26.10
2018-05-15T11:47:38.149Z,26.30
2018-05-15T11:50:06.780Z,26.20
2018-05-15T11:52:35.144Z,25.90
2018-05-15T11:55:02.801Z,25.70
2018-05-15T11:57:31.061Z,25.60
2018-05-15T12:00:00.211Z,25.30
2018-05-15T12:02:28.590Z,25.30
2018-05-15T12:04:57.550Z,25.60
2018-05-15T12:07:25.844Z,25.60
2018-05-15T12:09:54.110Z,25.70
2018-05-15T12:12:22.415Z,25.70
2018-05-15T12:14:50.729Z,25.70
2018-05-15T12:17:19.033Z,26.00
2018-05-15T12:19:47.305Z,26.20
2018-05-15T12:22:16.741Z,26.10
2018-05-15T12:24:45.789Z,26.00
2018-05-15T12:27:14.094Z,25.90
2018-05-15T12:29:42.389Z,25.80
2018-05-15T12:32:11.397Z,25.20
2018-05-15T12:34:39.703Z,25.20
2018-05-15T12:37:07.954Z,25.10
2018-05-15T12:39:36.240Z,25.10
2018-05-15T12:42:04.722Z,25.20
2018-05-15T12:44:32.780Z,25.40
2018-05-15T12:47:01.145Z,25.60
2018-05-15T12:49:30.171Z,25.90
2018-05-15T12:52:01.272Z,25.90
2018-05-15T12:54:29.624Z,26.10
2018-05-15T12:56:58.003Z,26.40
2018-05-15T12:59:26.356Z,26.50
2018-05-15T13:01:54.622Z,26.20
2018-05-15T13:04:22.909Z,26.20
2018-05-15T13:06:51.189Z,26.30
2018-05-15T13:09:19.481Z,26.10
2018-05-15T13:11:47.724Z,25.80
2018-05-15T13:14:16.015Z,25.60
2018-05-15T13:16:44.419Z,25.50
2018-05-15T13:19:12.728Z,25.40
2018-05-15T13:21:41.036Z,25.60
2018-05-15T13:24:09.347Z,25.60
2018-05-15T13:26:37.616Z,25.60
2018-05-15T13:29:05.862Z,25.50
2018-05-15T13:31:34.156Z,25.60
2018-05-15T13:34:02.417Z,25.70
2018-05-15T13:36:30.711Z,25.50
2018-05-15T13:38:58.947Z,25.30
2018-05-15T13:41:27.213Z,25.40
2018-05-15T13:43:55.536Z,25.60
2018-05-15T13:46:23.960Z,25.60
2018-05-15T13:48:52.283Z,25.60
2018-05-15T13:51:20.528Z,25.90
2018-05-15T13:53:48.788Z,26.20
2018-05-15T13:56:17.070Z,26.20
2018-05-15T13:58:46.103Z,25.90
2018-05-15T14:01:14.370Z,25.90
2018-05-15T14:03:43.574Z,25.60
2018-05-15T14:06:11.854Z,25.40
2018-05-15T14:08:40.230Z,25.20
2018-05-15T14:11:08.499Z,25.20
2018-05-15T14:13:37.531Z,25.10
2018-05-15T14:16:05.840Z,25.10
2018-05-15T14:18:34.114Z,25.30
2018-05-15T14:21:03.163Z,25.90
2018-05-15T14:23:31.474Z,25.90
2018-05-15T14:26:00.485Z,25.50
2018-05-15T14:28:28.837Z,25.50
2018-05-15T14:30:57.124Z,25.00
2018-05-15T14:33:26.182Z,24.80
2018-05-15T14:35:54.498Z,24.80
2018-05-15T14:38:23.284Z,24.60
2018-05-15T14:40:51.632Z,24.80
2018-05-15T14:43:20.914Z,25.00
2018-05-15T14:45:49.188Z,25.30
2018-05-15T14:48:17.507Z,25.50
2018-05-15T15:26:08.748Z,24.60
2018-05-15T15:28:36.972Z,24.60
2018-05-15T15:31:05.287Z,24.50
2018-05-15T15:33:34.842Z,24.70
2018-05-15T15:36:03.095Z,25.00
2018-05-15T15:38:32.130Z,25.10
2018-05-15T15:41:00.449Z,25.00
2018-05-15T15:43:29.008Z,25.30
2018-05-15T15:45:57.305Z,25.10
2018-05-15T15:48:25.604Z,25.30
2018-05-15T15:50:54.678Z,25.50
2018-05-15T15:53:22.940Z,25.50
2018-05-15T15:55:51.255Z,25.60
2018-05-15T15:58:19.509Z,25.50
2018-05-15T16:00:48.574Z,25.50
2018-05-15T16:03:16.864Z,25.50
2018-05-15T16:05:45.245Z,25.50
2018-05-15T16:08:13.488Z,25.50
2018-05-15T16:10:41.783Z,25.20
2018-05-15T16:13:10.048Z,25.20
2018-05-15T16:15:38.389Z,25.10
2018-05-15T16:18:06.612Z,25.20
2018-05-15T16:20:35.763Z,25.00
2018-05-15T16:23:04.796Z,25.10
2018-05-15T16:25:33.097Z,25.10
2018-05-15T16:28:01.471Z,25.10
2018-05-15T16:30:29.716Z,24.80
2018-05-15T16:32:58.031Z,24.70
2018-05-15T16:35:27.607Z,24.60
2018-05-15T16:37:55.862Z,24.50
2018-05-15T16:40:24.149Z,24.40
2018-05-15T16:42:52.554Z,24.40
2018-05-15T16:45:20.807Z,24.20
2018-05-15T16:47:49.095Z,24.10
2018-05-15T16:50:17.805Z,23.80
2018-05-15T16:52:46.028Z,23.70
2018-05-15T16:55:14.375Z,23.60
2018-05-15T16:57:44.125Z,23.50
2018-05-15T17:00:12.416Z,23.50
2018-05-15T17:02:40.669Z,23.40
2018-05-15T17:05:08.942Z,23.40
2018-05-15T17:07:37.209Z,23.30
2018-05-15T17:10:05.532Z,23.30
2018-05-15T17:12:33.839Z,23.20
2018-05-15T17:15:04.022Z,23.00
2018-05-15T17:17:32.286Z,23.00
2018-05-15T17:20:00.593Z,23.00
2018-05-15T17:22:28.852Z,23.00
2018-05-15T17:24:58.436Z,22.90
2018-05-15T17:27:27.566Z,22.70
2018-05-15T17:29:55.844Z,22.70
2018-05-15T17:32:24.121Z,22.50
2018-05-15T17:34:52.394Z,22.50
2018-05-15T17:37:20.699Z,22.70
2018-05-15T17:39:50.721Z,22.60
2018-05-15T17:42:19.781Z,22.60
2018-05-15T17:44:48.097Z,22.60
2018-05-15T17:47:17.185Z,22.70
2018-05-15T17:49:46.209Z,22.60
2018-05-15T17:52:14.554Z,22.60
2018-05-15T17:54:43.613Z,22.50
2018-05-15T17:57:11.869Z,22.50
2018-05-15T17:59:40.178Z,22.50
2018-05-15T18:02:08.433Z,22.30
2018-05-15T18:04:36.806Z,22.30
2018-05-15T18:07:05.099Z,22.20
2018-05-15T18:09:33.389Z,22.20
2018-05-15T18:12:01.660Z,22.10
2018-05-15T18:14:29.938Z,22.10
2018-05-15T18:16:58.228Z,21.90
2018-05-15T18:19:26.535Z,21.70
2018-05-15T18:21:54.856Z,21.70
2018-05-15T18:24:24.654Z,21.70
2018-05-15T18:26:52.907Z,21.70
2018-05-15T18:29:21.225Z,21.70
2018-05-15T18:31:49.514Z,21.80
2018-05-15T18:34:17.824Z,21.70
2018-05-15T18:36:46.900Z,21.60
2018-05-15T18:39:15.207Z,21.60
2018-05-15T18:41:43.492Z,21.60
2018-05-15T18:44:12.020Z,21.60
2018-05-15T18:46:40.300Z,21.60
2018-05-15T18:49:09.187Z,21.50
2018-05-15T18:51:37.461Z,21.30
2018-05-15T18:54:05.770Z,21.30
2018-05-15T18:56:34.080Z,21.30
2018-05-15T18:59:02.381Z,21.20
2018-05-15T19:01:30.759Z,21.20
2018-05-15T19:03:59.051Z,21.20
2018-05-15T19:06:27.361Z,21.00
2018-05-15T19:08:55.654Z,21.00
2018-05-15T19:11:23.962Z,21.00
2018-05-15T19:13:52.392Z,21.00
2018-05-15T19:16:20.670Z,21.00
2018-05-15T19:18:50.742Z,21.00
2018-05-15T19:21:19.056Z,21.00
2018-05-15T19:23:47.370Z,20.90
2018-05-15T19:26:16.491Z,20.90
2018-05-15T19:28:44.796Z,20.80
2018-05-15T19:31:15.488Z,20.70
2018-05-15T19:33:58.693Z,20.70
2018-05-15T19:36:30.977Z,20.70
2018-05-15T19:39:04.846Z,20.70
2018-05-15T19:41:33.963Z,20.50
2018-05-15T19:44:02.271Z,20.50
2018-05-15T19:46:30.536Z,20.40
2018-05-15T19:48:58.796Z,20.30
2018-05-15T19:51:27.113Z,20.20
2018-05-15T19:53:55.414Z,20.20
2018-05-15T19:56:24.470Z,20.20
2018-05-15T19:58:52.734Z,20.10
2018-05-15T20:01:21.063Z,20.10
2018-05-15T20:03:49.382Z,20.10
2018-05-15T20:06:17.797Z,20.10
2018-05-15T20:08:46.097Z,20.10
2018-05-15T20:11:14.550Z,20.10
2018-05-15T20:13:42.855Z,20.10
2018-05-15T20:16:11.291Z,20.00
2018-05-15T20:18:40.304Z,20.00
2018-05-15T20:21:08.622Z,20.00
2018-05-15T20:23:36.931Z,19.90
2018-05-15T20:26:05.237Z,19.90
2018-05-15T20:28:33.537Z,19.90
2018-05-15T20:31:03.529Z,19.80
2018-05-15T20:33:31.857Z,19.80
2018-05-15T20:36:00.110Z,19.70
2018-05-15T20:38:29.145Z,19.70
2018-05-15T20:40:57.445Z,19.60
2018-05-15T20:43:25.719Z,19.60
2018-05-15T20:45:54.097Z,19.60
2018-05-15T20:48:22.433Z,19.60
2018-05-15T20:50:50.744Z,19.50
2018-05-15T20:53:19.001Z,19.50
2018-05-15T20:55:47.319Z,19.50
2018-05-15T20:58:17.072Z,19.40
2018-05-15T21:00:45.423Z,19.40
2018-05-15T21:03:14.705Z,19.40
2018-05-15T21:05:43.077Z,19.40
2018-05-15T21:08:12.147Z,19.40
2018-05-15T21:10:40.446Z,19.40
2018-05-15T21:13:08.717Z,19.40
2018-05-15T21:15:36.998Z,19.40
2018-05-15T21:18:05.285Z,19.40
2018-05-15T21:20:33.549Z,19.50
2018-05-15T21:23:01.867Z,19.50
2018-05-15T21:25:30.862Z,19.50
2018-05-15T21:27:59.105Z,19.50
2018-05-15T21:30:27.416Z,19.50
2018-05-15T21:32:55.778Z,19.40
2018-05-15T21:35:24.860Z,19.30
2018-05-15T21:37:53.164Z,19.30
2018-05-15T21:40:21.513Z,19.30
2018-05-15T21:42:49.837Z,19.20
2018-05-15T21:45:18.140Z,19.20
2018-05-15T21:47:46.558Z,19.20
2018-05-15T21:50:15.623Z,19.00
2018-05-15T21:52:43.921Z,19.00
2018-05-15T21:55:12.991Z,18.90
2018-05-15T21:57:41.321Z,18.90
2018-05-15T22:00:09.680Z,19.00
2018-05-15T22:02:38.731Z,18.90
2018-05-15T22:05:06.996Z,18.90
2018-05-15T22:07:36.167Z,18.80
2018-05-15T22:10:04.400Z,18.80
2018-05-15T22:12:44.583Z,18.90
2018-05-15T22:15:31.490Z,18.70
2018-05-15T22:18:18.284Z,18.70
2018-05-15T22:21:05.306Z,18.60
2018-05-15T22:23:39.801Z,18.60
2018-05-15T22:26:08.671Z,18.60
2018-05-15T22:28:36.957Z,18.60
2018-05-15T22:31:05.268Z,18.50
2018-05-15T22:33:33.546Z,18.40
2018-05-15T22:36:01.860Z,18.30
2018-05-15T22:38:30.177Z,18.30
2018-05-15T22:40:58.553Z,18.20
2018-05-15T22:43:26.811Z,18.20
2018-05-15T22:45:55.109Z,18.20
2018-05-15T22:48:23.360Z,18.20
2018-05-15T22:50:51.657Z,18.30
2018-05-15T22:53:19.934Z,18.30
2018-05-15T22:55:48.250Z,18.20
2018-05-15T22:58:17.327Z,18.00
2018-05-15T23:00:46.384Z,18.00
2018-05-15T23:03:14.911Z,17.90
2018-05-15T23:05:43.242Z,17.80
2018-05-15T23:08:11.477Z,17.70
2018-05-15T23:10:39.727Z,17.60
2018-05-15T23:13:08.073Z,17.40
2018-05-15T23:15:36.380Z,17.30
2018-05-15T23:18:04.627Z,17.30
2018-05-15T23:20:32.901Z,17.20
2018-05-15T23:23:01.199Z,17.10
2018-05-15T23:25:29.487Z,17.10
2018-05-15T23:27:57.772Z,17.10
2018-05-15T23:30:26.823Z,17.10
2018-05-15T23:32:55.113Z,17.00
2018-05-15T23:35:23.421Z,17.10
2018-05-15T23:37:52.517Z,17.00
2018-05-15T23:40:20.809Z,17.00
2018-05-15T23:42:49.142Z,17.00
2018-05-15T23:45:17.518Z,17.00
2018-05-15T23:47:45.793Z,16.90
2018-05-15T23:50:14.060Z,16.90
2018-05-15T23:52:43.254Z,16.90
2018-05-15T23:55:12.447Z,17.00
2018-05-15T23:57:40.715Z,16.90
